sensor_id;sensor_type;location;lat;lon;timestamp;pressure;altitude;pressure_sealevel;temperature;humidity
50364;BME280;36272;59.400;17.982;2023-07-20T00:01:54;100004.63;;;15.09;75.49
50364;BME280;36272;59.400;17.982;2023-07-20T00:06:56;100008.66;;;15.01;75.37
50364;BME280;36272;59.400;17.982;2023-07-20T00:11:58;100003.84;;;14.98;75.53
50364;BME280;36272;59.400;17.982;2023-07-20T00:17:02;99989.53;;;14.93;75.76
50364;BME280;36272;59.400;17.982;2023-07-20T00:22:04;100005.44;;;14.89;75.97
50364;BME280;36272;59.400;17.982;2023-07-20T00:27:06;99993.84;;;14.83;76.08
50364;BME280;36272;59.400;17.982;2023-07-20T00:32:17;99974.19;;;14.78;76.78
50364;BME280;36272;59.400;17.982;2023-07-20T00:37:19;99987.09;;;14.76;76.64
50364;BME280;36272;59.400;17.982;2023-07-20T00:42:20;99999.75;;;14.70;76.84
50364;BME280;36272;59.400;17.982;2023-07-20T00:47:22;99992.72;;;14.64;77.04
50364;BME280;36272;59.400;17.982;2023-07-20T00:52:25;99985.72;;;14.57;77.52
50364;BME280;36272;59.400;17.982;2023-07-20T00:57:28;99999.16;;;14.52;77.78
50364;BME280;36272;59.400;17.982;2023-07-20T01:02:30;100000.75;;;14.48;77.72
50364;BME280;36272;59.400;17.982;2023-07-20T01:07:57;99985.97;;;14.46;78.08
50364;BME280;36272;59.400;17.982;2023-07-20T01:13:06;99982.44;;;14.45;78.55
50364;BME280;36272;59.400;17.982;2023-07-20T01:18:08;100003.44;;;14.48;78.43
50364;BME280;36272;59.400;17.982;2023-07-20T01:23:35;99977.91;;;14.51;78.64
50364;BME280;36272;59.400;17.982;2023-07-20T01:33:46;99986.25;;;14.54;78.80
50364;BME280;36272;59.400;17.982;2023-07-20T01:38:49;99989.47;;;14.56;78.81
50364;BME280;36272;59.400;17.982;2023-07-20T01:43:51;99992.72;;;14.58;79.06
50364;BME280;36272;59.400;17.982;2023-07-20T01:48:53;99983.03;;;14.63;79.10
50364;BME280;36272;59.400;17.982;2023-07-20T01:53:55;99985.72;;;14.68;78.84
50364;BME280;36272;59.400;17.982;2023-07-20T01:58:57;99985.22;;;14.71;78.97
50364;BME280;36272;59.400;17.982;2023-07-20T02:03:58;99979.31;;;14.74;79.05
50364;BME280;36272;59.400;17.982;2023-07-20T02:09:00;99974.47;;;14.76;79.18
50364;BME280;36272;59.400;17.982;2023-07-20T02:14:02;99975.53;;;14.70;79.18
50364;BME280;36272;59.400;17.982;2023-07-20T02:19:03;99977.66;;;14.63;79.79
50364;BME280;36272;59.400;17.982;2023-07-20T02:24:08;99977.63;;;14.57;79.45
50364;BME280;36272;59.400;17.982;2023-07-20T02:29:10;99977.38;;;14.54;79.73
50364;BME280;36272;59.400;17.982;2023-07-20T02:34:12;99979.78;;;14.50;79.81
50364;BME280;36272;59.400;17.982;2023-07-20T02:39:14;99973.31;;;14.46;80.22
50364;BME280;36272;59.400;17.982;2023-07-20T02:44:16;99978.66;;;14.41;80.27
50364;BME280;36272;59.400;17.982;2023-07-20T02:49:18;99975.97;;;14.36;80.38
50364;BME280;36272;59.400;17.982;2023-07-20T02:54:20;99976.25;;;14.34;80.67
50364;BME280;36272;59.400;17.982;2023-07-20T02:59:22;99976.53;;;14.33;80.84
50364;BME280;36272;59.400;17.982;2023-07-20T03:04:26;99962.53;;;14.31;81.35
50364;BME280;36272;59.400;17.982;2023-07-20T03:09:27;99976.53;;;14.33;81.25
50364;BME280;36272;59.400;17.982;2023-07-20T03:14:29;99980.84;;;14.34;81.51
50364;BME280;36272;59.400;17.982;2023-07-20T03:19:31;99975.44;;;14.34;81.93
50364;BME280;36272;59.400;17.982;2023-07-20T03:24:32;99975.72;;;14.37;81.63
50364;BME280;36272;59.400;17.982;2023-07-20T03:29:34;99976.81;;;14.41;81.85
50364;BME280;36272;59.400;17.982;2023-07-20T03:34:36;99967.38;;;14.44;81.89
50364;BME280;36272;59.400;17.982;2023-07-20T03:39:38;99970.91;;;14.50;81.49
50364;BME280;36272;59.400;17.982;2023-07-20T03:44:39;99983.56;;;14.54;81.96
50364;BME280;36272;59.400;17.982;2023-07-20T03:49:41;99974.66;;;14.59;82.03
50364;BME280;36272;59.400;17.982;2023-07-20T03:54:43;99982.22;;;14.62;81.95
50364;BME280;36272;59.400;17.982;2023-07-20T03:59:45;99981.16;;;14.68;82.00
50364;BME280;36272;59.400;17.982;2023-07-20T04:04:47;99987.41;;;14.74;81.70
50364;BME280;36272;59.400;17.982;2023-07-20T04:09:51;99969.63;;;14.78;81.96
50364;BME280;36272;59.400;17.982;2023-07-20T04:14:53;99983.91;;;14.84;81.89
50364;BME280;36272;59.400;17.982;2023-07-20T04:19:55;99973.91;;;14.90;81.83
50364;BME280;36272;59.400;17.982;2023-07-20T04:24:57;99977.16;;;14.97;81.78
50364;BME280;36272;59.400;17.982;2023-07-20T04:29:58;99983.34;;;15.02;82.07
50364;BME280;36272;59.400;17.982;2023-07-20T04:35:07;99952.66;;;15.09;82.13
50364;BME280;36272;59.400;17.982;2023-07-20T04:40:09;99970.16;;;15.16;81.91
50364;BME280;36272;59.400;17.982;2023-07-20T04:45:11;99980.66;;;15.23;81.70
50364;BME280;36272;59.400;17.982;2023-07-20T04:50:13;99971.50;;;15.29;81.84
50364;BME280;36272;59.400;17.982;2023-07-20T04:55:14;99969.31;;;15.37;81.74
50364;BME280;36272;59.400;17.982;2023-07-20T05:00:17;99959.09;;;15.44;81.61
50364;BME280;36272;59.400;17.982;2023-07-20T05:05:18;99956.63;;;15.53;81.70
50364;BME280;36272;59.400;17.982;2023-07-20T05:10:20;99966.56;;;15.57;81.24
50364;BME280;36272;59.400;17.982;2023-07-20T05:15:22;99966.84;;;15.66;81.45
50364;BME280;36272;59.400;17.982;2023-07-20T05:20:23;99970.56;;;15.75;81.27
50364;BME280;36272;59.400;17.982;2023-07-20T05:25:25;99975.69;;;15.82;81.18
50364;BME280;36272;59.400;17.982;2023-07-20T05:30:37;99958.44;;;15.88;81.33
50364;BME280;36272;59.400;17.982;2023-07-20T05:35:38;99972.94;;;15.98;80.67
50364;BME280;36272;59.400;17.982;2023-07-20T05:40:50;99957.78;;;16.07;81.16
50364;BME280;36272;59.400;17.982;2023-07-20T05:45:55;99970.94;;;16.19;80.45
50364;BME280;36272;59.400;17.982;2023-07-20T05:51:11;99949.34;;;16.24;80.31
50364;BME280;36272;59.400;17.982;2023-07-20T05:56:13;99964.66;;;16.34;79.78
50364;BME280;36272;59.400;17.982;2023-07-20T06:01:20;99953.00;;;16.44;79.90
50364;BME280;36272;59.400;17.982;2023-07-20T06:06:22;99975.31;;;16.60;79.63
50364;BME280;36272;59.400;17.982;2023-07-20T06:11:25;99978.84;;;16.90;79.10
50364;BME280;36272;59.400;17.982;2023-07-20T06:16:26;99975.94;;;17.21;78.33
50364;BME280;36272;59.400;17.982;2023-07-20T06:21:33;99953.50;;;17.50;77.91
50364;BME280;36272;59.400;17.982;2023-07-20T06:26:35;99968.56;;;17.80;76.77
50364;BME280;36272;59.400;17.982;2023-07-20T06:31:50;99945.69;;;17.92;76.44
50364;BME280;36272;59.400;17.982;2023-07-20T06:36:52;99961.69;;;17.88;76.28
50364;BME280;36272;59.400;17.982;2023-07-20T06:41:53;99956.06;;;17.84;76.68
50364;BME280;36272;59.400;17.982;2023-07-20T06:46:55;99959.06;;;17.83;75.98
50364;BME280;36272;59.400;17.982;2023-07-20T06:51:56;99960.44;;;17.80;76.07
50364;BME280;36272;59.400;17.982;2023-07-20T06:56:58;99961.53;;;17.79;76.09
50364;BME280;36272;59.400;17.982;2023-07-20T07:02:00;99958.25;;;17.82;75.82
50364;BME280;36272;59.400;17.982;2023-07-20T07:07:01;99965.19;;;17.89;75.61
50364;BME280;36272;59.400;17.982;2023-07-20T07:12:05;99945.25;;;18.09;75.32
50364;BME280;36272;59.400;17.982;2023-07-20T07:17:06;99952.41;;;18.38;74.58
50364;BME280;36272;59.400;17.982;2023-07-20T07:22:08;99954.31;;;18.37;73.99
50364;BME280;36272;59.400;17.982;2023-07-20T07:27:10;99953.56;;;18.51;73.73
50364;BME280;36272;59.400;17.982;2023-07-20T07:32:12;99947.34;;;18.69;73.25
50364;BME280;36272;59.400;17.982;2023-07-20T07:37:15;99933.63;;;18.80;72.50
50364;BME280;36272;59.400;17.982;2023-07-20T07:42:17;99949.34;;;18.78;72.24
50364;BME280;36272;59.400;17.982;2023-07-20T07:47:19;99954.06;;;18.72;72.23
50364;BME280;36272;59.400;17.982;2023-07-20T07:52:21;99941.97;;;18.83;72.49
50364;BME280;36272;59.400;17.982;2023-07-20T07:57:23;99943.41;;;18.95;72.02
50364;BME280;36272;59.400;17.982;2023-07-20T08:02:24;99941.28;;;19.11;71.59
50364;BME280;36272;59.400;17.982;2023-07-20T08:07:26;99948.31;;;19.26;70.46
50364;BME280;36272;59.400;17.982;2023-07-20T08:12:28;99947.31;;;19.36;69.99
50364;BME280;36272;59.400;17.982;2023-07-20T08:17:29;99941.09;;;19.35;69.14
50364;BME280;36272;59.400;17.982;2023-07-20T08:22:31;99945.53;;;19.45;68.97
50364;BME280;36272;59.400;17.982;2023-07-20T08:27:32;99940.41;;;19.57;68.37
50364;BME280;36272;59.400;17.982;2023-07-20T08:32:34;99946.53;;;19.63;68.66
50364;BME280;36272;59.400;17.982;2023-07-20T08:37:36;99948.72;;;19.75;67.07
50364;BME280;36272;59.400;17.982;2023-07-20T08:42:38;99927.53;;;19.77;67.08
50364;BME280;36272;59.400;17.982;2023-07-20T08:47:41;99927.53;;;20.05;66.51
50364;BME280;36272;59.400;17.982;2023-07-20T08:52:45;99928.72;;;20.13;65.83
50364;BME280;36272;59.400;17.982;2023-07-20T08:57:50;99925.78;;;20.09;65.64
50364;BME280;36272;59.400;17.982;2023-07-20T09:02:54;99933.97;;;20.32;64.96
50364;BME280;36272;59.400;17.982;2023-07-20T09:07:56;99934.13;;;20.49;64.09
50364;BME280;36272;59.400;17.982;2023-07-20T09:12:58;99945.84;;;20.59;63.03
50364;BME280;36272;59.400;17.982;2023-07-20T09:18:02;99922.53;;;20.80;62.81
50364;BME280;36272;59.400;17.982;2023-07-20T09:23:05;99936.78;;;21.09;62.35
50364;BME280;36272;59.400;17.982;2023-07-20T09:28:08;99929.84;;;21.34;62.34
50364;BME280;36272;59.400;17.982;2023-07-20T09:33:21;99929.16;;;21.69;61.44
50364;BME280;36272;59.400;17.982;2023-07-20T09:38:23;99947.47;;;21.86;60.90
50364;BME280;36272;59.400;17.982;2023-07-20T09:43:28;99925.56;;;22.09;59.85
50364;BME280;36272;59.400;17.982;2023-07-20T09:48:31;99947.00;;;22.02;59.53
50364;BME280;36272;59.400;17.982;2023-07-20T09:53:33;99933.41;;;22.37;59.48
50364;BME280;36272;59.400;17.982;2023-07-20T09:58:36;99928.47;;;22.56;58.35
50364;BME280;36272;59.400;17.982;2023-07-20T10:03:38;99938.69;;;22.42;58.92
50364;BME280;36272;59.400;17.982;2023-07-20T10:08:41;99934.03;;;21.98;59.71
50364;BME280;36272;59.400;17.982;2023-07-20T10:13:43;99936.56;;;21.86;61.25
50364;BME280;36272;59.400;17.982;2023-07-20T10:18:47;99941.44;;;22.33;58.65
50364;BME280;36272;59.400;17.982;2023-07-20T10:23:51;99945.56;;;22.83;56.59
50364;BME280;36272;59.400;17.982;2023-07-20T10:28:53;99932.09;;;22.96;55.13
50364;BME280;36272;59.400;17.982;2023-07-20T10:33:58;99904.22;;;22.90;55.62
50364;BME280;36272;59.400;17.982;2023-07-20T10:39:01;99934.19;;;22.81;55.52
50364;BME280;36272;59.400;17.982;2023-07-20T10:44:04;99920.63;;;22.55;55.79
50364;BME280;36272;59.400;17.982;2023-07-20T10:49:07;99923.97;;;22.43;55.66
50364;BME280;36272;59.400;17.982;2023-07-20T11:04:40;99910.63;;;22.85;53.85
50364;BME280;36272;59.400;17.982;2023-07-20T11:09:42;99915.59;;;22.83;54.85
50364;BME280;36272;59.400;17.982;2023-07-20T11:14:57;99911.59;;;23.37;54.62
50364;BME280;36272;59.400;17.982;2023-07-20T11:20:00;99913.56;;;27.11;49.78
50364;BME280;36272;59.400;17.982;2023-07-20T11:25:02;99918.16;;;28.89;47.69
50364;BME280;36272;59.400;17.982;2023-07-20T11:30:05;99915.34;;;30.92;44.61
50364;BME280;36272;59.400;17.982;2023-07-20T11:35:16;99924.28;;;33.00;42.19
50364;BME280;36272;59.400;17.982;2023-07-20T11:40:18;99922.63;;;32.59;42.02
50364;BME280;36272;59.400;17.982;2023-07-20T11:45:19;99922.69;;;33.13;41.82
50364;BME280;36272;59.400;17.982;2023-07-20T11:50:21;99925.81;;;33.73;40.55
50364;BME280;36272;59.400;17.982;2023-07-20T11:55:23;99922.16;;;34.76;39.06
50364;BME280;36272;59.400;17.982;2023-07-20T12:00:25;99932.19;;;33.48;39.54
50364;BME280;36272;59.400;17.982;2023-07-20T12:05:26;99927.34;;;32.44;40.08
50364;BME280;36272;59.400;17.982;2023-07-20T12:10:41;99900.34;;;35.27;39.33
50364;BME280;36272;59.400;17.982;2023-07-20T12:15:44;99925.84;;;36.57;36.88
50364;BME280;36272;59.400;17.982;2023-07-20T12:20:46;99926.66;;;33.48;39.14
50364;BME280;36272;59.400;17.982;2023-07-20T12:25:47;99921.41;;;31.60;40.84
50364;BME280;36272;59.400;17.982;2023-07-20T12:30:49;99936.28;;;29.94;41.93
50364;BME280;36272;59.400;17.982;2023-07-20T12:35:58;99921.94;;;28.81;43.96
50364;BME280;36272;59.400;17.982;2023-07-20T12:41:11;99914.47;;;29.04;43.95
50364;BME280;36272;59.400;17.982;2023-07-20T12:46:16;99930.66;;;28.24;45.06
50364;BME280;36272;59.400;17.982;2023-07-20T12:51:17;99935.38;;;27.87;45.55
50364;BME280;36272;59.400;17.982;2023-07-20T12:56:20;99936.72;;;27.45;46.63
50364;BME280;36272;59.400;17.982;2023-07-20T13:01:26;99913.72;;;27.02;47.13
50364;BME280;36272;59.400;17.982;2023-07-20T13:06:28;99940.97;;;28.11;46.07
50364;BME280;36272;59.400;17.982;2023-07-20T13:11:29;99933.06;;;28.88;44.31
50364;BME280;36272;59.400;17.982;2023-07-20T13:16:31;99925.22;;;28.27;44.83
50364;BME280;36272;59.400;17.982;2023-07-20T13:21:33;99927.91;;;27.36;45.68
50364;BME280;36272;59.400;17.982;2023-07-20T13:26:34;99920.34;;;26.85;46.41
50364;BME280;36272;59.400;17.982;2023-07-20T13:31:36;99925.41;;;29.01;45.19
50364;BME280;36272;59.400;17.982;2023-07-20T13:36:38;99927.44;;;28.81;44.87
50364;BME280;36272;59.400;17.982;2023-07-20T13:41:39;99930.41;;;27.77;45.28
50364;BME280;36272;59.400;17.982;2023-07-20T13:46:41;99930.28;;;26.90;47.13
50364;BME280;36272;59.400;17.982;2023-07-20T13:51:42;99924.69;;;26.86;48.03
50364;BME280;36272;59.400;17.982;2023-07-20T13:56:44;99926.69;;;28.21;46.72
50364;BME280;36272;59.400;17.982;2023-07-20T14:01:46;99917.94;;;28.78;45.01
50364;BME280;36272;59.400;17.982;2023-07-20T14:06:49;99912.75;;;28.53;44.74
50364;BME280;36272;59.400;17.982;2023-07-20T14:11:51;99921.38;;;28.12;44.58
50364;BME280;36272;59.400;17.982;2023-07-20T14:16:52;99912.44;;;28.78;43.73
50364;BME280;36272;59.400;17.982;2023-07-20T14:21:54;99920.91;;;29.93;43.42
50364;BME280;36272;59.400;17.982;2023-07-20T14:26:56;99931.41;;;30.45;41.88
50364;BME280;36272;59.400;17.982;2023-07-20T14:31:58;99913.19;;;30.74;41.87
50364;BME280;36272;59.400;17.982;2023-07-20T14:37:01;99916.31;;;31.70;41.30
50364;BME280;36272;59.400;17.982;2023-07-20T14:42:04;99921.13;;;31.21;40.79
50364;BME280;36272;59.400;17.982;2023-07-20T14:47:06;99917.50;;;29.73;41.60
50364;BME280;36272;59.400;17.982;2023-07-20T14:52:08;99909.78;;;28.62;43.83
50364;BME280;36272;59.400;17.982;2023-07-20T14:57:09;99920.41;;;28.04;44.06
50364;BME280;36272;59.400;17.982;2023-07-20T15:02:15;99909.31;;;27.29;44.68
50364;BME280;36272;59.400;17.982;2023-07-20T15:07:21;99897.19;;;26.54;45.50
50364;BME280;36272;59.400;17.982;2023-07-20T15:12:23;99926.69;;;26.16;45.75
50364;BME280;36272;59.400;17.982;2023-07-20T15:17:25;99928.47;;;25.71;45.68
50364;BME280;36272;59.400;17.982;2023-07-20T15:22:26;99933.13;;;25.83;46.11
50364;BME280;36272;59.400;17.982;2023-07-20T15:27:28;99925.25;;;26.63;45.45
50364;BME280;36272;59.400;17.982;2023-07-20T15:32:29;99928.78;;;26.92;45.12
50364;BME280;36272;59.400;17.982;2023-07-20T15:37:31;99929.59;;;26.64;45.41
50364;BME280;36272;59.400;17.982;2023-07-20T15:42:33;99928.03;;;26.10;45.98
50364;BME280;36272;59.400;17.982;2023-07-20T15:47:35;99928.22;;;25.39;46.44
50364;BME280;36272;59.400;17.982;2023-07-20T15:52:37;99920.44;;;24.91;47.21
50364;BME280;36272;59.400;17.982;2023-07-20T15:57:38;99919.59;;;24.57;47.58
50364;BME280;36272;59.400;17.982;2023-07-20T16:02:40;99921.25;;;24.71;47.97
50364;BME280;36272;59.400;17.982;2023-07-20T16:07:42;99915.00;;;25.16;46.99
50364;BME280;36272;59.400;17.982;2023-07-20T16:12:46;99918.53;;;25.17;47.05
50364;BME280;36272;59.400;17.982;2023-07-20T16:17:48;99917.16;;;25.11;47.19
50364;BME280;36272;59.400;17.982;2023-07-20T16:22:49;99924.75;;;25.05;47.29
50364;BME280;36272;59.400;17.982;2023-07-20T16:27:51;99921.94;;;25.14;47.76
50364;BME280;36272;59.400;17.982;2023-07-20T16:32:52;99918.84;;;25.15;47.35
50364;BME280;36272;59.400;17.982;2023-07-20T16:37:55;99911.31;;;25.00;48.03
50364;BME280;36272;59.400;17.982;2023-07-20T16:42:57;99911.09;;;24.92;47.66
50364;BME280;36272;59.400;17.982;2023-07-20T16:47:59;99917.94;;;24.65;48.05
50364;BME280;36272;59.400;17.982;2023-07-20T16:53:02;99927.03;;;24.35;48.63
50364;BME280;36272;59.400;17.982;2023-07-20T16:58:04;99924.53;;;24.09;48.92
50364;BME280;36272;59.400;17.982;2023-07-20T17:03:06;99930.69;;;23.97;49.68
50364;BME280;36272;59.400;17.982;2023-07-20T17:08:07;99924.19;;;23.81;49.93
50364;BME280;36272;59.400;17.982;2023-07-20T17:13:10;99913.53;;;23.67;50.03
50364;BME280;36272;59.400;17.982;2023-07-20T17:18:12;99925.25;;;23.20;50.47
50364;BME280;36272;59.400;17.982;2023-07-20T17:23:14;99911.16;;;22.70;51.34
50364;BME280;36272;59.400;17.982;2023-07-20T17:28:17;99945.75;;;22.43;51.78
50364;BME280;36272;59.400;17.982;2023-07-20T17:33:18;99950.41;;;22.25;51.75
50364;BME280;36272;59.400;17.982;2023-07-20T17:38:20;99949.72;;;22.02;52.30
50364;BME280;36272;59.400;17.982;2023-07-20T17:43:25;99969.72;;;21.88;52.54
50364;BME280;36272;59.400;17.982;2023-07-20T17:48:26;99983.44;;;21.43;54.98
50364;BME280;36272;59.400;17.982;2023-07-20T17:53:28;99974.19;;;20.67;56.34
50364;BME280;36272;59.400;17.982;2023-07-20T17:58:30;99966.28;;;20.19;58.25
50364;BME280;36272;59.400;17.982;2023-07-20T18:03:32;99963.38;;;19.74;61.63
50364;BME280;36272;59.400;17.982;2023-07-20T18:08:35;99944.00;;;19.39;63.35
50364;BME280;36272;59.400;17.982;2023-07-20T18:13:37;99963.06;;;19.20;65.33
50364;BME280;36272;59.400;17.982;2023-07-20T18:18:39;99953.13;;;19.15;66.70
50364;BME280;36272;59.400;17.982;2023-07-20T18:23:40;99958.19;;;19.02;68.53
50364;BME280;36272;59.400;17.982;2023-07-20T18:28:42;99961.13;;;18.87;69.40
50364;BME280;36272;59.400;17.982;2023-07-20T18:33:44;99954.66;;;18.69;70.33
50364;BME280;36272;59.400;17.982;2023-07-20T18:38:45;99962.72;;;18.55;71.18
50364;BME280;36272;59.400;17.982;2023-07-20T18:43:47;99953.44;;;18.42;71.68
50364;BME280;36272;59.400;17.982;2023-07-20T18:48:48;99958.78;;;18.28;72.15
50364;BME280;36272;59.400;17.982;2023-07-20T18:53:50;99951.50;;;18.04;72.58
50364;BME280;36272;59.400;17.982;2023-07-20T18:58:54;99965.84;;;17.80;73.33
50364;BME280;36272;59.400;17.982;2023-07-20T19:03:55;99962.53;;;17.64;73.82
50364;BME280;36272;59.400;17.982;2023-07-20T19:08:57;99965.59;;;17.52;74.36
50364;BME280;36272;59.400;17.982;2023-07-20T19:13:59;99963.25;;;17.46;75.04
50364;BME280;36272;59.400;17.982;2023-07-20T19:19:00;99957.91;;;17.41;75.76
50364;BME280;36272;59.400;17.982;2023-07-20T19:24:02;99958.28;;;17.29;75.52
50364;BME280;36272;59.400;17.982;2023-07-20T19:29:04;99975.16;;;17.15;75.35
50364;BME280;36272;59.400;17.982;2023-07-20T19:34:05;99971.28;;;16.97;75.38
50364;BME280;36272;59.400;17.982;2023-07-20T19:39:07;99971.88;;;16.84;74.86
50364;BME280;36272;59.400;17.982;2023-07-20T19:44:09;99980.91;;;16.69;75.53
50364;BME280;36272;59.400;17.982;2023-07-20T19:49:10;99984.75;;;16.57;76.09
50364;BME280;36272;59.400;17.982;2023-07-20T19:54:12;99980.00;;;16.44;76.95
50364;BME280;36272;59.400;17.982;2023-07-20T19:59:14;99987.06;;;16.34;76.76
50364;BME280;36272;59.400;17.982;2023-07-20T20:04:15;99978.50;;;16.22;77.17
50364;BME280;36272;59.400;17.982;2023-07-20T20:09:21;99992.00;;;16.17;77.01
50364;BME280;36272;59.400;17.982;2023-07-20T20:14:22;99990.44;;;16.05;77.77
50364;BME280;36272;59.400;17.982;2023-07-20T20:19:24;99987.78;;;15.95;78.51
50364;BME280;36272;59.400;17.982;2023-07-20T20:24:26;99985.38;;;15.83;78.62
50364;BME280;36272;59.400;17.982;2023-07-20T20:29:28;99993.75;;;15.76;78.88
50364;BME280;36272;59.400;17.982;2023-07-20T20:34:30;99986.50;;;15.67;78.99
50364;BME280;36272;59.400;17.982;2023-07-20T20:39:32;100000.53;;;15.58;79.27
50364;BME280;36272;59.400;17.982;2023-07-20T20:44:34;100001.91;;;15.51;79.68
50364;BME280;36272;59.400;17.982;2023-07-20T20:49:35;100001.38;;;15.43;79.49
50364;BME280;36272;59.400;17.982;2023-07-20T20:54:46;99990.06;;;15.36;80.04
50364;BME280;36272;59.400;17.982;2023-07-20T20:59:48;100008.91;;;15.26;80.57
50364;BME280;36272;59.400;17.982;2023-07-20T21:04:51;100006.25;;;15.15;80.35
50364;BME280;36272;59.400;17.982;2023-07-20T21:09:53;100007.31;;;15.09;80.23
50364;BME280;36272;59.400;17.982;2023-07-20T21:14:55;100006.78;;;15.02;80.69
50364;BME280;36272;59.400;17.982;2023-07-20T21:19:57;100004.09;;;14.97;80.96
50364;BME280;36272;59.400;17.982;2023-07-20T21:24:59;100010.28;;;14.92;81.21
50364;BME280;36272;59.400;17.982;2023-07-20T21:30:01;100003.00;;;14.87;81.62
50364;BME280;36272;59.400;17.982;2023-07-20T21:35:03;100004.63;;;14.89;81.68
50364;BME280;36272;59.400;17.982;2023-07-20T21:40:07;99994.91;;;14.87;81.60
50364;BME280;36272;59.400;17.982;2023-07-20T21:45:09;100004.06;;;14.86;81.81
50364;BME280;36272;59.400;17.982;2023-07-20T21:50:11;100000.03;;;14.84;81.80
50364;BME280;36272;59.400;17.982;2023-07-20T21:55:13;100019.16;;;14.87;82.09
50364;BME280;36272;59.400;17.982;2023-07-20T22:00:14;100006.78;;;14.92;82.01
50364;BME280;36272;59.400;17.982;2023-07-20T22:05:16;100010.84;;;14.99;82.04
50364;BME280;36272;59.400;17.982;2023-07-20T22:10:18;100013.25;;;15.06;82.08
50364;BME280;36272;59.400;17.982;2023-07-20T22:15:20;100009.47;;;15.12;81.73
50364;BME280;36272;59.400;17.982;2023-07-20T22:20:22;100005.19;;;15.16;81.51
50364;BME280;36272;59.400;17.982;2023-07-20T22:25:26;100002.75;;;15.20;81.28
50364;BME280;36272;59.400;17.982;2023-07-20T22:30:28;100006.22;;;15.26;81.14
50364;BME280;36272;59.400;17.982;2023-07-20T22:35:30;100008.91;;;15.31;80.49
50364;BME280;36272;59.400;17.982;2023-07-20T22:40:31;100003.53;;;15.36;80.37
50364;BME280;36272;59.400;17.982;2023-07-20T22:45:35;99995.19;;;15.43;80.43
50364;BME280;36272;59.400;17.982;2023-07-20T22:50:36;100003.81;;;15.45;80.70
50364;BME280;36272;59.400;17.982;2023-07-20T22:55:38;100008.38;;;15.44;80.31
50364;BME280;36272;59.400;17.982;2023-07-20T23:00:41;100011.06;;;15.44;80.06
50364;BME280;36272;59.400;17.982;2023-07-20T23:05:43;100008.38;;;15.44;80.19
50364;BME280;36272;59.400;17.982;2023-07-20T23:10:44;100003.53;;;15.41;79.96
50364;BME280;36272;59.400;17.982;2023-07-20T23:15:46;100003.28;;;15.38;80.25
50364;BME280;36272;59.400;17.982;2023-07-20T23:20:48;100004.06;;;15.33;80.25
50364;BME280;36272;59.400;17.982;2023-07-20T23:25:53;99986.28;;;15.27;80.38
50364;BME280;36272;59.400;17.982;2023-07-20T23:30:54;100007.59;;;15.23;80.28
50364;BME280;36272;59.400;17.982;2023-07-20T23:35:56;100011.91;;;15.19;80.73
50364;BME280;36272;59.400;17.982;2023-07-20T23:40:58;100010.81;;;15.20;80.77
50364;BME280;36272;59.400;17.982;2023-07-20T23:46:00;100010.28;;;15.23;80.48
50364;BME280;36272;59.400;17.982;2023-07-20T23:51:03;100012.19;;;15.23;80.57
50364;BME280;36272;59.400;17.982;2023-07-20T23:56:06;100011.09;;;15.19;80.53
